sensor_id;sensor_type;location;lat;lon;timestamp;P1;durP1;ratioP1;P2;durP2;ratioP2
48042;SDS011;33988;47.992;8.820;2023-05-01T00:01:33;1.95;;;1.80;;
48042;SDS011;33988;47.992;8.820;2023-05-01T00:04:00;2.72;;;2.00;;
48042;SDS011;33988;47.992;8.820;2023-05-01T00:06:27;2.58;;;1.88;;
48042;SDS011;33988;47.992;8.820;2023-05-01T00:08:55;2.33;;;2.05;;
48042;SDS011;33988;47.992;8.820;2023-05-01T00:11:24;2.20;;;1.95;;
48042;SDS011;33988;47.992;8.820;2023-05-01T00:13:51;2.28;;;1.98;;
48042;SDS011;33988;47.992;8.820;2023-05-01T00:16:22;2.17;;;1.98;;
48042;SDS011;33988;47.992;8.820;2023-05-01T00:18:49;2.30;;;2.10;;
48042;SDS011;33988;47.992;8.820;2023-05-01T00:21:16;2.30;;;2.10;;
48042;SDS011;33988;47.992;8.820;2023-05-01T00:23:42;1.98;;;1.77;;
48042;SDS011;33988;47.992;8.820;2023-05-01T00:26:12;2.30;;;2.08;;
48042;SDS011;33988;47.992;8.820;2023-05-01T00:28:39;1.92;;;1.73;;
48042;SDS011;33988;47.992;8.820;2023-05-01T00:31:11;2.22;;;1.88;;
48042;SDS011;33988;47.992;8.820;2023-05-01T00:33:38;2.13;;;1.92;;
48042;SDS011;33988;47.992;8.820;2023-05-01T00:36:07;2.30;;;1.83;;
48042;SDS011;33988;47.992;8.820;2023-05-01T00:38:36;1.98;;;1.83;;
48042;SDS011;33988;47.992;8.820;2023-05-01T00:41:03;3.30;;;1.85;;
48042;SDS011;33988;47.992;8.820;2023-05-01T00:43:32;2.58;;;2.08;;
48042;SDS011;33988;47.992;8.820;2023-05-01T00:45:59;2.22;;;2.03;;
48042;SDS011;33988;47.992;8.820;2023-05-01T00:48:27;2.38;;;2.03;;
48042;SDS011;33988;47.992;8.820;2023-05-01T00:50:56;2.22;;;2.03;;
48042;SDS011;33988;47.992;8.820;2023-05-01T00:53:26;2.72;;;2.20;;
48042;SDS011;33988;47.992;8.820;2023-05-01T00:55:53;2.85;;;2.17;;
48042;SDS011;33988;47.992;8.820;2023-05-01T00:58:25;2.20;;;2.00;;
48042;SDS011;33988;47.992;8.820;2023-05-01T01:00:57;2.22;;;2.03;;
48042;SDS011;33988;47.992;8.820;2023-05-01T01:03:24;2.20;;;2.00;;
48042;SDS011;33988;47.992;8.820;2023-05-01T01:05:55;2.65;;;2.10;;
48042;SDS011;33988;47.992;8.820;2023-05-01T01:08:41;3.30;;;2.15;;
48042;SDS011;33988;47.992;8.820;2023-05-01T01:11:24;2.05;;;1.90;;
48042;SDS011;33988;47.992;8.820;2023-05-01T01:26:11;1.92;;;1.83;;
48042;SDS011;33988;47.992;8.820;2023-05-01T01:34:53;2.45;;;2.05;;
48042;SDS011;33988;47.992;8.820;2023-05-01T01:40:08;2.42;;;2.08;;
48042;SDS011;33988;47.992;8.820;2023-05-01T01:42:45;2.30;;;2.08;;
48042;SDS011;33988;47.992;8.820;2023-05-01T01:45:18;3.25;;;2.00;;
48042;SDS011;33988;47.992;8.820;2023-05-01T01:47:50;2.58;;;1.95;;
48042;SDS011;33988;47.992;8.820;2023-05-01T01:50:25;2.80;;;2.10;;
48042;SDS011;33988;47.992;8.820;2023-05-01T01:52:59;2.38;;;2.17;;
48042;SDS011;33988;47.992;8.820;2023-05-01T01:55:28;1.98;;;1.83;;
48042;SDS011;33988;47.992;8.820;2023-05-01T01:57:58;2.38;;;2.10;;
48042;SDS011;33988;47.992;8.820;2023-05-01T02:00:28;2.70;;;2.03;;
48042;SDS011;33988;47.992;8.820;2023-05-01T02:03:01;1.92;;;1.73;;
48042;SDS011;33988;47.992;8.820;2023-05-01T02:05:29;2.35;;;1.98;;
48042;SDS011;33988;47.992;8.820;2023-05-01T02:07:58;2.05;;;1.88;;
48042;SDS011;33988;47.992;8.820;2023-05-01T02:10:26;2.20;;;1.92;;
48042;SDS011;33988;47.992;8.820;2023-05-01T02:12:59;2.50;;;2.30;;
48042;SDS011;33988;47.992;8.820;2023-05-01T02:15:30;2.28;;;1.88;;
48042;SDS011;33988;47.992;8.820;2023-05-01T02:18:03;2.40;;;1.90;;
48042;SDS011;33988;47.992;8.820;2023-05-01T02:20:34;2.25;;;2.00;;
48042;SDS011;33988;47.992;8.820;2023-05-01T02:23:01;2.30;;;2.03;;
48042;SDS011;33988;47.992;8.820;2023-05-01T02:25:30;3.92;;;2.25;;
48042;SDS011;33988;47.992;8.820;2023-05-01T02:28:04;2.00;;;1.80;;
48042;SDS011;33988;47.992;8.820;2023-05-01T02:30:39;3.60;;;2.15;;
48042;SDS011;33988;47.992;8.820;2023-05-01T02:33:06;3.30;;;1.83;;
48042;SDS011;33988;47.992;8.820;2023-05-01T02:35:42;2.55;;;2.10;;
48042;SDS011;33988;47.992;8.820;2023-05-01T02:38:12;2.45;;;2.13;;
48042;SDS011;33988;47.992;8.820;2023-05-01T02:40:45;2.67;;;2.05;;
48042;SDS011;33988;47.992;8.820;2023-05-01T02:43:20;3.47;;;1.88;;
48042;SDS011;33988;47.992;8.820;2023-05-01T02:45:50;1.95;;;1.83;;
48042;SDS011;33988;47.992;8.820;2023-05-01T02:48:26;2.17;;;1.98;;
48042;SDS011;33988;47.992;8.820;2023-05-01T02:50:54;2.40;;;2.20;;
48042;SDS011;33988;47.992;8.820;2023-05-01T02:53:22;2.28;;;2.08;;
48042;SDS011;33988;47.992;8.820;2023-05-01T02:55:51;3.35;;;2.20;;
48042;SDS011;33988;47.992;8.820;2023-05-01T02:58:18;2.05;;;1.95;;
48042;SDS011;33988;47.992;8.820;2023-05-01T03:00:51;2.13;;;1.95;;
48042;SDS011;33988;47.992;8.820;2023-05-01T03:03:18;2.28;;;2.08;;
48042;SDS011;33988;47.992;8.820;2023-05-01T03:05:45;2.13;;;1.92;;
48042;SDS011;33988;47.992;8.820;2023-05-01T03:08:14;2.20;;;2.00;;
48042;SDS011;33988;47.992;8.820;2023-05-01T03:10:43;3.22;;;2.20;;
48042;SDS011;33988;47.992;8.820;2023-05-01T03:13:10;2.35;;;1.90;;
48042;SDS011;33988;47.992;8.820;2023-05-01T03:15:39;3.10;;;2.20;;
48042;SDS011;33988;47.992;8.820;2023-05-01T03:18:09;2.75;;;2.08;;
48042;SDS011;33988;47.992;8.820;2023-05-01T03:20:38;3.53;;;2.00;;
48042;SDS011;33988;47.992;8.820;2023-05-01T03:23:05;3.13;;;2.20;;
48042;SDS011;33988;47.992;8.820;2023-05-01T03:25:32;2.83;;;2.58;;
48042;SDS011;33988;47.992;8.820;2023-05-01T03:28:02;2.53;;;2.33;;
48042;SDS011;33988;47.992;8.820;2023-05-01T03:30:29;2.97;;;2.45;;
48042;SDS011;33988;47.992;8.820;2023-05-01T03:33:01;2.50;;;2.30;;
48042;SDS011;33988;47.992;8.820;2023-05-01T03:35:28;2.58;;;2.28;;
48042;SDS011;33988;47.992;8.820;2023-05-01T03:37:57;2.38;;;2.13;;
48042;SDS011;33988;47.992;8.820;2023-05-01T03:40:27;3.58;;;2.00;;
48042;SDS011;33988;47.992;8.820;2023-05-01T03:42:54;2.67;;;2.25;;
48042;SDS011;33988;47.992;8.820;2023-05-01T03:45:20;2.50;;;2.13;;
48042;SDS011;33988;47.992;8.820;2023-05-01T03:47:50;2.30;;;2.10;;
48042;SDS011;33988;47.992;8.820;2023-05-01T03:50:17;2.58;;;2.25;;
48042;SDS011;33988;47.992;8.820;2023-05-01T03:52:44;2.25;;;2.05;;
48042;SDS011;33988;47.992;8.820;2023-05-01T03:55:13;5.13;;;2.08;;
48042;SDS011;33988;47.992;8.820;2023-05-01T03:57:42;2.35;;;2.15;;
48042;SDS011;33988;47.992;8.820;2023-05-01T04:00:12;2.47;;;2.28;;
48042;SDS011;33988;47.992;8.820;2023-05-01T04:02:39;2.20;;;2.00;;
48042;SDS011;33988;47.992;8.820;2023-05-01T04:05:06;3.25;;;2.95;;
48042;SDS011;33988;47.992;8.820;2023-05-01T04:07:35;4.47;;;2.45;;
48042;SDS011;33988;47.992;8.820;2023-05-01T04:10:03;2.47;;;2.20;;
48042;SDS011;33988;47.992;8.820;2023-05-01T04:12:32;3.28;;;2.33;;
48042;SDS011;33988;47.992;8.820;2023-05-01T04:14:59;2.92;;;2.20;;
48042;SDS011;33988;47.992;8.820;2023-05-01T04:17:29;2.28;;;2.08;;
48042;SDS011;33988;47.992;8.820;2023-05-01T04:19:59;3.50;;;2.33;;
48042;SDS011;33988;47.992;8.820;2023-05-01T04:22:26;3.40;;;2.40;;
48042;SDS011;33988;47.992;8.820;2023-05-01T04:24:53;3.03;;;2.25;;
48042;SDS011;33988;47.992;8.820;2023-05-01T04:27:20;2.50;;;2.30;;
48042;SDS011;33988;47.992;8.820;2023-05-01T04:29:50;2.65;;;2.33;;
48042;SDS011;33988;47.992;8.820;2023-05-01T04:32:20;2.40;;;2.20;;
48042;SDS011;33988;47.992;8.820;2023-05-01T04:34:47;3.67;;;2.45;;
48042;SDS011;33988;47.992;8.820;2023-05-01T04:37:14;2.47;;;2.28;;
48042;SDS011;33988;47.992;8.820;2023-05-01T04:42:13;2.50;;;2.30;;
48042;SDS011;33988;47.992;8.820;2023-05-01T04:44:40;2.00;;;1.80;;
48042;SDS011;33988;47.992;8.820;2023-05-01T04:47:07;2.40;;;2.20;;
48042;SDS011;33988;47.992;8.820;2023-05-01T04:49:34;2.40;;;2.20;;
48042;SDS011;33988;47.992;8.820;2023-05-01T04:52:06;2.53;;;2.33;;
48042;SDS011;33988;47.992;8.820;2023-05-01T04:54:35;2.92;;;2.33;;
48042;SDS011;33988;47.992;8.820;2023-05-01T04:57:02;3.60;;;2.63;;
48042;SDS011;33988;47.992;8.820;2023-05-01T04:59:29;3.70;;;2.63;;
48042;SDS011;33988;47.992;8.820;2023-05-01T05:01:56;2.63;;;2.40;;
48042;SDS011;33988;47.992;8.820;2023-05-01T05:04:25;3.05;;;2.60;;
48042;SDS011;33988;47.992;8.820;2023-05-01T05:06:53;2.67;;;2.42;;
48042;SDS011;33988;47.992;8.820;2023-05-01T05:09:20;3.10;;;2.67;;
48042;SDS011;33988;47.992;8.820;2023-05-01T05:11:47;4.38;;;2.47;;
48042;SDS011;33988;47.992;8.820;2023-05-01T05:14:13;2.90;;;2.45;;
48042;SDS011;33988;47.992;8.820;2023-05-01T05:16:40;2.45;;;2.08;;
48042;SDS011;33988;47.992;8.820;2023-05-01T05:19:10;2.75;;;2.45;;
48042;SDS011;33988;47.992;8.820;2023-05-01T05:21:37;2.90;;;2.58;;
48042;SDS011;33988;47.992;8.820;2023-05-01T05:24:06;4.05;;;2.35;;
48042;SDS011;33988;47.992;8.820;2023-05-01T05:26:35;3.67;;;2.40;;
48042;SDS011;33988;47.992;8.820;2023-05-01T05:29:03;2.80;;;2.30;;
48042;SDS011;33988;47.992;8.820;2023-05-01T05:31:30;2.58;;;2.38;;
48042;SDS011;33988;47.992;8.820;2023-05-01T05:34:01;3.08;;;2.50;;
48042;SDS011;33988;47.992;8.820;2023-05-01T05:36:28;3.25;;;2.53;;
48042;SDS011;33988;47.992;8.820;2023-05-01T05:38:56;3.47;;;2.80;;
48042;SDS011;33988;47.992;8.820;2023-05-01T05:41:23;2.60;;;2.40;;
48042;SDS011;33988;47.992;8.820;2023-05-01T05:43:52;2.85;;;2.65;;
48042;SDS011;33988;47.992;8.820;2023-05-01T05:46:19;5.10;;;2.80;;
48042;SDS011;33988;47.992;8.820;2023-05-01T05:48:49;2.63;;;2.40;;
48042;SDS011;33988;47.992;8.820;2023-05-01T05:51:18;3.50;;;2.58;;
48042;SDS011;33988;47.992;8.820;2023-05-01T05:53:48;3.03;;;2.70;;
48042;SDS011;33988;47.992;8.820;2023-05-01T05:56:15;3.20;;;2.90;;
48042;SDS011;33988;47.992;8.820;2023-05-01T05:58:42;2.85;;;2.53;;
48042;SDS011;33988;47.992;8.820;2023-05-01T06:01:11;3.00;;;2.70;;
48042;SDS011;33988;47.992;8.820;2023-05-01T06:03:41;3.40;;;2.90;;
48042;SDS011;33988;47.992;8.820;2023-05-01T06:06:10;3.38;;;2.85;;
48042;SDS011;33988;47.992;8.820;2023-05-01T06:08:37;2.83;;;2.63;;
48042;SDS011;33988;47.992;8.820;2023-05-01T06:11:07;3.83;;;2.97;;
48042;SDS011;33988;47.992;8.820;2023-05-01T06:13:36;3.10;;;2.80;;
48042;SDS011;33988;47.992;8.820;2023-05-01T06:16:06;3.10;;;2.80;;
48042;SDS011;33988;47.992;8.820;2023-05-01T06:18:33;3.10;;;2.67;;
48042;SDS011;33988;47.992;8.820;2023-05-01T06:21:03;3.15;;;2.85;;
48042;SDS011;33988;47.992;8.820;2023-05-01T06:23:32;4.38;;;2.45;;
48042;SDS011;33988;47.992;8.820;2023-05-01T06:26:02;3.00;;;2.55;;
48042;SDS011;33988;47.992;8.820;2023-05-01T06:28:29;3.15;;;2.85;;
48042;SDS011;33988;47.992;8.820;2023-05-01T06:30:56;3.13;;;2.75;;
48042;SDS011;33988;47.992;8.820;2023-05-01T06:33:23;3.65;;;2.97;;
48042;SDS011;33988;47.992;8.820;2023-05-01T06:35:49;3.42;;;3.13;;
48042;SDS011;33988;47.992;8.820;2023-05-01T06:38:16;2.97;;;2.67;;
48042;SDS011;33988;47.992;8.820;2023-05-01T06:40:52;4.55;;;2.67;;
48042;SDS011;33988;47.992;8.820;2023-05-01T06:43:21;3.33;;;3.03;;
48042;SDS011;33988;47.992;8.820;2023-05-01T06:45:48;4.47;;;2.72;;
48042;SDS011;33988;47.992;8.820;2023-05-01T06:48:15;3.75;;;3.10;;
48042;SDS011;33988;47.992;8.820;2023-05-01T06:50:44;3.33;;;3.03;;
48042;SDS011;33988;47.992;8.820;2023-05-01T06:53:11;3.78;;;3.33;;
48042;SDS011;33988;47.992;8.820;2023-05-01T06:55:39;3.45;;;3.15;;
48042;SDS011;33988;47.992;8.820;2023-05-01T06:58:05;4.45;;;3.67;;
48042;SDS011;33988;47.992;8.820;2023-05-01T07:00:49;3.22;;;2.92;;
48042;SDS011;33988;47.992;8.820;2023-05-01T07:03:18;5.82;;;3.15;;
48042;SDS011;33988;47.992;8.820;2023-05-01T07:05:45;4.43;;;3.38;;
48042;SDS011;33988;47.992;8.820;2023-05-01T07:08:14;5.40;;;4.90;;
48042;SDS011;33988;47.992;8.820;2023-05-01T07:10:41;4.25;;;3.85;;
48042;SDS011;33988;47.992;8.820;2023-05-01T07:13:10;4.32;;;3.70;;
48042;SDS011;33988;47.992;8.820;2023-05-01T07:15:37;5.28;;;3.42;;
48042;SDS011;33988;47.992;8.820;2023-05-01T07:18:04;4.10;;;3.38;;
48042;SDS011;33988;47.992;8.820;2023-05-01T07:20:31;5.05;;;3.20;;
48042;SDS011;33988;47.992;8.820;2023-05-01T07:23:01;4.18;;;3.35;;
48042;SDS011;33988;47.992;8.820;2023-05-01T07:25:31;3.60;;;3.10;;
48042;SDS011;33988;47.992;8.820;2023-05-01T07:28:02;3.60;;;3.17;;
48042;SDS011;33988;47.992;8.820;2023-05-01T07:30:30;4.20;;;3.72;;
48042;SDS011;33988;47.992;8.820;2023-05-01T07:32:58;3.95;;;3.25;;
48042;SDS011;33988;47.992;8.820;2023-05-01T07:35:33;4.15;;;3.30;;
48042;SDS011;33988;47.992;8.820;2023-05-01T07:38:00;3.55;;;3.03;;
48042;SDS011;33988;47.992;8.820;2023-05-01T07:40:27;3.60;;;3.30;;
48042;SDS011;33988;47.992;8.820;2023-05-01T07:42:54;4.32;;;3.13;;
48042;SDS011;33988;47.992;8.820;2023-05-01T07:45:23;3.70;;;3.30;;
48042;SDS011;33988;47.992;8.820;2023-05-01T07:47:55;3.15;;;2.85;;
48042;SDS011;33988;47.992;8.820;2023-05-01T07:50:27;3.42;;;3.13;;
48042;SDS011;33988;47.992;8.820;2023-05-01T07:52:54;3.85;;;3.10;;
48042;SDS011;33988;47.992;8.820;2023-05-01T07:55:21;3.35;;;3.05;;
48042;SDS011;33988;47.992;8.820;2023-05-01T07:57:51;6.93;;;3.47;;
48042;SDS011;33988;47.992;8.820;2023-05-01T08:00:18;4.07;;;3.45;;
48042;SDS011;33988;47.992;8.820;2023-05-01T08:02:45;3.45;;;3.08;;
48042;SDS011;33988;47.992;8.820;2023-05-01T08:05:19;3.45;;;3.13;;
48042;SDS011;33988;47.992;8.820;2023-05-01T08:07:46;3.10;;;2.80;;
48042;SDS011;33988;47.992;8.820;2023-05-01T08:10:13;4.60;;;2.92;;
48042;SDS011;33988;47.992;8.820;2023-05-01T08:15:11;4.05;;;2.80;;
48042;SDS011;33988;47.992;8.820;2023-05-01T08:17:38;3.28;;;2.75;;
48042;SDS011;33988;47.992;8.820;2023-05-01T08:20:05;3.20;;;2.88;;
48042;SDS011;33988;47.992;8.820;2023-05-01T08:22:35;6.05;;;2.92;;
48042;SDS011;33988;47.992;8.820;2023-05-01T08:25:03;3.42;;;2.95;;
48042;SDS011;33988;47.992;8.820;2023-05-01T08:27:33;3.67;;;3.30;;
48042;SDS011;33988;47.992;8.820;2023-05-01T08:30:02;3.20;;;2.92;;
48042;SDS011;33988;47.992;8.820;2023-05-01T08:32:30;3.25;;;2.95;;
48042;SDS011;33988;47.992;8.820;2023-05-01T08:34:57;2.65;;;2.45;;
48042;SDS011;33988;47.992;8.820;2023-05-01T08:37:24;3.35;;;2.80;;
48042;SDS011;33988;47.992;8.820;2023-05-01T08:39:51;2.63;;;2.42;;
48042;SDS011;33988;47.992;8.820;2023-05-01T08:42:19;3.00;;;2.70;;
48042;SDS011;33988;47.992;8.820;2023-05-01T08:44:46;3.90;;;2.78;;
48042;SDS011;33988;47.992;8.820;2023-05-01T08:47:14;2.72;;;2.53;;
48042;SDS011;33988;47.992;8.820;2023-05-01T08:49:46;2.80;;;2.58;;
48042;SDS011;33988;47.992;8.820;2023-05-01T08:52:18;4.28;;;2.60;;
48042;SDS011;33988;47.992;8.820;2023-05-01T08:54:47;2.70;;;2.50;;
48042;SDS011;33988;47.992;8.820;2023-05-01T08:57:19;2.55;;;2.22;;
48042;SDS011;33988;47.992;8.820;2023-05-01T08:59:49;3.05;;;2.65;;
48042;SDS011;33988;47.992;8.820;2023-05-01T09:02:16;5.20;;;2.75;;
48042;SDS011;33988;47.992;8.820;2023-05-01T09:04:46;3.30;;;2.60;;
48042;SDS011;33988;47.992;8.820;2023-05-01T09:07:20;2.80;;;2.40;;
48042;SDS011;33988;47.992;8.820;2023-05-01T09:09:50;3.08;;;2.78;;
48042;SDS011;33988;47.992;8.820;2023-05-01T09:14:55;2.72;;;2.50;;
48042;SDS011;33988;47.992;8.820;2023-05-01T09:17:25;3.53;;;2.67;;
48042;SDS011;33988;47.992;8.820;2023-05-01T09:19:52;2.72;;;2.45;;
48042;SDS011;33988;47.992;8.820;2023-05-01T09:22:22;3.33;;;2.90;;
48042;SDS011;33988;47.992;8.820;2023-05-01T09:24:49;3.20;;;2.80;;
48042;SDS011;33988;47.992;8.820;2023-05-01T09:27:16;2.97;;;2.42;;
48042;SDS011;33988;47.992;8.820;2023-05-01T09:29:45;3.15;;;2.75;;
48042;SDS011;33988;47.992;8.820;2023-05-01T09:35:12;2.70;;;2.47;;
48042;SDS011;33988;47.992;8.820;2023-05-01T09:37:48;2.67;;;2.40;;
48042;SDS011;33988;47.992;8.820;2023-05-01T09:40:18;4.18;;;2.70;;
48042;SDS011;33988;47.992;8.820;2023-05-01T09:42:54;2.60;;;2.40;;
48042;SDS011;33988;47.992;8.820;2023-05-01T09:45:24;3.20;;;2.70;;
48042;SDS011;33988;47.992;8.820;2023-05-01T09:48:06;2.63;;;2.42;;
48042;SDS011;33988;47.992;8.820;2023-05-01T09:50:39;2.33;;;2.13;;
48042;SDS011;33988;47.992;8.820;2023-05-01T09:53:09;3.70;;;2.42;;
48042;SDS011;33988;47.992;8.820;2023-05-01T09:55:40;2.60;;;2.40;;
48042;SDS011;33988;47.992;8.820;2023-05-01T09:58:07;2.72;;;2.53;;
48042;SDS011;33988;47.992;8.820;2023-05-01T10:00:54;2.88;;;2.47;;
48042;SDS011;33988;47.992;8.820;2023-05-01T10:03:24;2.63;;;2.42;;
48042;SDS011;33988;47.992;8.820;2023-05-01T10:05:52;2.67;;;2.40;;
48042;SDS011;33988;47.992;8.820;2023-05-01T10:08:22;3.20;;;2.65;;
48042;SDS011;33988;47.992;8.820;2023-05-01T10:11:03;2.40;;;2.20;;
48042;SDS011;33988;47.992;8.820;2023-05-01T10:13:30;2.80;;;2.58;;
48042;SDS011;33988;47.992;8.820;2023-05-01T10:15:57;2.80;;;2.45;;
48042;SDS011;33988;47.992;8.820;2023-05-01T10:18:26;3.15;;;2.30;;
48042;SDS011;33988;47.992;8.820;2023-05-01T10:20:59;2.75;;;2.55;;
48042;SDS011;33988;47.992;8.820;2023-05-01T10:23:26;2.60;;;2.40;;
48042;SDS011;33988;47.992;8.820;2023-05-01T10:25:53;2.75;;;2.55;;
48042;SDS011;33988;47.992;8.820;2023-05-01T10:28:25;2.97;;;2.47;;
48042;SDS011;33988;47.992;8.820;2023-05-01T10:30:56;2.97;;;2.47;;
48042;SDS011;33988;47.992;8.820;2023-05-01T10:33:26;2.47;;;2.28;;
48042;SDS011;33988;47.992;8.820;2023-05-01T10:35:56;2.83;;;2.50;;
48042;SDS011;33988;47.992;8.820;2023-05-01T10:38:29;2.55;;;2.35;;
48042;SDS011;33988;47.992;8.820;2023-05-01T10:41:00;2.22;;;2.03;;
48042;SDS011;33988;47.992;8.820;2023-05-01T10:43:28;2.72;;;2.50;;
48042;SDS011;33988;47.992;8.820;2023-05-01T10:51:09;2.40;;;2.20;;
48042;SDS011;33988;47.992;8.820;2023-05-01T10:56:39;2.42;;;2.10;;
48042;SDS011;33988;47.992;8.820;2023-05-01T10:59:10;1.88;;;1.75;;
48042;SDS011;33988;47.992;8.820;2023-05-01T11:01:38;2.33;;;2.13;;
48042;SDS011;33988;47.992;8.820;2023-05-01T11:04:07;2.35;;;2.15;;
48042;SDS011;33988;47.992;8.820;2023-05-01T11:09:41;2.75;;;1.50;;
48042;SDS011;33988;47.992;8.820;2023-05-01T11:12:10;1.70;;;1.55;;
48042;SDS011;33988;47.992;8.820;2023-05-01T11:20:12;1.60;;;1.50;;
48042;SDS011;33988;47.992;8.820;2023-05-01T11:23:02;2.30;;;1.33;;
48042;SDS011;33988;47.992;8.820;2023-05-01T11:25:29;1.85;;;1.20;;
48042;SDS011;33988;47.992;8.820;2023-05-01T11:27:58;2.88;;;1.10;;
48042;SDS011;33988;47.992;8.820;2023-05-01T11:30:36;0.85;;;0.85;;
48042;SDS011;33988;47.992;8.820;2023-05-01T11:33:07;0.85;;;0.85;;
48042;SDS011;33988;47.992;8.820;2023-05-01T11:35:37;1.10;;;1.00;;
48042;SDS011;33988;47.992;8.820;2023-05-01T11:38:04;1.00;;;1.00;;
48042;SDS011;33988;47.992;8.820;2023-05-01T11:40:32;1.02;;;0.90;;
48042;SDS011;33988;47.992;8.820;2023-05-01T11:43:06;1.00;;;0.98;;
48042;SDS011;33988;47.992;8.820;2023-05-01T11:45:34;1.42;;;0.98;;
48042;SDS011;33988;47.992;8.820;2023-05-01T11:48:03;1.00;;;1.00;;
48042;SDS011;33988;47.992;8.820;2023-05-01T11:50:40;2.45;;;1.10;;
48042;SDS011;33988;47.992;8.820;2023-05-01T11:53:11;0.85;;;0.85;;
48042;SDS011;33988;47.992;8.820;2023-05-01T11:55:41;0.98;;;0.90;;
48042;SDS011;33988;47.992;8.820;2023-05-01T11:58:09;0.88;;;0.88;;
48042;SDS011;33988;47.992;8.820;2023-05-01T12:00:40;1.00;;;0.90;;
48042;SDS011;33988;47.992;8.820;2023-05-01T12:03:09;1.00;;;0.90;;
48042;SDS011;33988;47.992;8.820;2023-05-01T12:05:40;0.93;;;0.90;;
48042;SDS011;33988;47.992;8.820;2023-05-01T12:08:15;1.75;;;1.13;;
48042;SDS011;33988;47.992;8.820;2023-05-01T12:10:52;1.05;;;0.95;;
48042;SDS011;33988;47.992;8.820;2023-05-01T12:13:25;1.33;;;1.02;;
48042;SDS011;33988;47.992;8.820;2023-05-01T12:15:55;1.20;;;1.10;;
48042;SDS011;33988;47.992;8.820;2023-05-01T12:18:22;1.52;;;1.10;;
48042;SDS011;33988;47.992;8.820;2023-05-01T12:20:50;1.50;;;1.17;;
48042;SDS011;33988;47.992;8.820;2023-05-01T12:23:30;1.35;;;1.25;;
48042;SDS011;33988;47.992;8.820;2023-05-01T12:25:59;1.15;;;1.05;;
48042;SDS011;33988;47.992;8.820;2023-05-01T12:28:29;1.00;;;1.00;;
48042;SDS011;33988;47.992;8.820;2023-05-01T12:30:59;1.10;;;0.98;;
48042;SDS011;33988;47.992;8.820;2023-05-01T12:33:30;1.35;;;1.25;;
48042;SDS011;33988;47.992;8.820;2023-05-01T12:36:07;1.13;;;1.00;;
48042;SDS011;33988;47.992;8.820;2023-05-01T12:38:38;0.98;;;0.93;;
48042;SDS011;33988;47.992;8.820;2023-05-01T12:41:21;1.30;;;1.20;;
48042;SDS011;33988;47.992;8.820;2023-05-01T12:44:18;1.67;;;1.10;;
48042;SDS011;33988;47.992;8.820;2023-05-01T12:47:03;0.85;;;0.82;;
48042;SDS011;33988;47.992;8.820;2023-05-01T12:49:33;1.13;;;1.02;;
48042;SDS011;33988;47.992;8.820;2023-05-01T12:52:06;1.10;;;1.00;;
48042;SDS011;33988;47.992;8.820;2023-05-01T12:54:35;1.60;;;0.85;;
48042;SDS011;33988;47.992;8.820;2023-05-01T12:59:43;1.08;;;0.95;;
48042;SDS011;33988;47.992;8.820;2023-05-01T13:02:16;1.25;;;1.05;;
48042;SDS011;33988;47.992;8.820;2023-05-01T13:04:44;0.90;;;0.90;;
48042;SDS011;33988;47.992;8.820;2023-05-01T13:09:54;1.15;;;1.00;;
48042;SDS011;33988;47.992;8.820;2023-05-01T13:12:31;1.38;;;0.90;;
48042;SDS011;33988;47.992;8.820;2023-05-01T13:15:01;0.75;;;0.75;;
48042;SDS011;33988;47.992;8.820;2023-05-01T13:17:28;0.95;;;0.95;;
48042;SDS011;33988;47.992;8.820;2023-05-01T13:20:01;0.88;;;0.88;;
48042;SDS011;33988;47.992;8.820;2023-05-01T13:22:31;2.40;;;1.50;;
48042;SDS011;33988;47.992;8.820;2023-05-01T13:24:59;1.40;;;0.90;;
48042;SDS011;33988;47.992;8.820;2023-05-01T13:27:28;6.38;;;2.80;;
48042;SDS011;33988;47.992;8.820;2023-05-01T13:29:56;1.15;;;1.00;;
48042;SDS011;33988;47.992;8.820;2023-05-01T13:32:25;0.90;;;0.90;;
48042;SDS011;33988;47.992;8.820;2023-05-01T13:34:52;1.40;;;0.77;;
48042;SDS011;33988;47.992;8.820;2023-05-01T13:37:19;0.80;;;0.80;;
48042;SDS011;33988;47.992;8.820;2023-05-01T13:39:47;1.00;;;0.90;;
48042;SDS011;33988;47.992;8.820;2023-05-01T13:42:20;1.00;;;0.90;;
48042;SDS011;33988;47.992;8.820;2023-05-01T13:44:53;0.90;;;0.90;;
48042;SDS011;33988;47.992;8.820;2023-05-01T13:47:22;1.00;;;0.90;;
48042;SDS011;33988;47.992;8.820;2023-05-01T13:49:52;0.75;;;0.75;;
48042;SDS011;33988;47.992;8.820;2023-05-01T13:52:19;1.00;;;0.90;;
48042;SDS011;33988;47.992;8.820;2023-05-01T13:54:47;1.00;;;0.90;;
48042;SDS011;33988;47.992;8.820;2023-05-01T13:57:14;1.48;;;1.10;;
48042;SDS011;33988;47.992;8.820;2023-05-01T13:59:43;1.08;;;1.00;;
48042;SDS011;33988;47.992;8.820;2023-05-01T14:04:54;1.00;;;0.90;;
48042;SDS011;33988;47.992;8.820;2023-05-01T14:07:27;1.23;;;1.00;;
48042;SDS011;33988;47.992;8.820;2023-05-01T14:09:55;0.80;;;0.80;;
48042;SDS011;33988;47.992;8.820;2023-05-01T14:12:28;1.20;;;1.10;;
48042;SDS011;33988;47.992;8.820;2023-05-01T14:14:57;1.20;;;1.10;;
48042;SDS011;33988;47.992;8.820;2023-05-01T14:17:28;1.38;;;1.00;;
48042;SDS011;33988;47.992;8.820;2023-05-01T14:19:57;0.98;;;0.98;;
48042;SDS011;33988;47.992;8.820;2023-05-01T14:22:24;1.63;;;1.20;;
48042;SDS011;33988;47.992;8.820;2023-05-01T14:24:56;0.98;;;0.98;;
48042;SDS011;33988;47.992;8.820;2023-05-01T14:27:24;2.22;;;1.00;;
48042;SDS011;33988;47.992;8.820;2023-05-01T14:29:53;1.88;;;1.17;;
48042;SDS011;33988;47.992;8.820;2023-05-01T14:32:21;0.85;;;0.85;;
48042;SDS011;33988;47.992;8.820;2023-05-01T14:34:50;1.10;;;1.00;;
48042;SDS011;33988;47.992;8.820;2023-05-01T14:37:17;1.15;;;1.00;;
48042;SDS011;33988;47.992;8.820;2023-05-01T14:39:44;1.20;;;1.10;;
48042;SDS011;33988;47.992;8.820;2023-05-01T14:42:11;1.17;;;1.08;;
48042;SDS011;33988;47.992;8.820;2023-05-01T14:44:39;1.27;;;1.17;;
48042;SDS011;33988;47.992;8.820;2023-05-01T14:47:08;1.23;;;1.13;;
48042;SDS011;33988;47.992;8.820;2023-05-01T14:49:35;1.10;;;1.00;;
48042;SDS011;33988;47.992;8.820;2023-05-01T14:52:02;1.38;;;1.27;;
48042;SDS011;33988;47.992;8.820;2023-05-01T14:54:29;1.20;;;1.10;;
48042;SDS011;33988;47.992;8.820;2023-05-01T14:56:58;1.30;;;1.20;;
48042;SDS011;33988;47.992;8.820;2023-05-01T14:59:31;1.17;;;1.07;;
48042;SDS011;33988;47.992;8.820;2023-05-01T15:01:58;1.08;;;0.98;;
48042;SDS011;33988;47.992;8.820;2023-05-01T15:04:27;1.63;;;1.15;;
48042;SDS011;33988;47.992;8.820;2023-05-01T15:06:57;2.28;;;1.27;;
48042;SDS011;33988;47.992;8.820;2023-05-01T15:09:24;1.30;;;1.20;;
48042;SDS011;33988;47.992;8.820;2023-05-01T15:11:51;1.40;;;1.30;;
48042;SDS011;33988;47.992;8.820;2023-05-01T15:14:17;1.20;;;1.10;;
48042;SDS011;33988;47.992;8.820;2023-05-01T15:16:44;1.23;;;1.13;;
48042;SDS011;33988;47.992;8.820;2023-05-01T15:19:13;1.60;;;1.08;;
48042;SDS011;33988;47.992;8.820;2023-05-01T15:21:44;1.02;;;0.90;;
48042;SDS011;33988;47.992;8.820;2023-05-01T15:24:10;0.90;;;0.90;;
48042;SDS011;33988;47.992;8.820;2023-05-01T15:26:37;1.20;;;1.10;;
48042;SDS011;33988;47.992;8.820;2023-05-01T15:29:07;3.83;;;1.15;;
48042;SDS011;33988;47.992;8.820;2023-05-01T15:31:34;1.95;;;1.55;;
48042;SDS011;33988;47.992;8.820;2023-05-01T15:34:04;1.58;;;1.30;;
48042;SDS011;33988;47.992;8.820;2023-05-01T15:36:32;3.08;;;1.20;;
48042;SDS011;33988;47.992;8.820;2023-05-01T15:39:01;1.70;;;1.60;;
48042;SDS011;33988;47.992;8.820;2023-05-01T15:41:36;1.80;;;1.10;;
48042;SDS011;33988;47.992;8.820;2023-05-01T15:44:04;0.88;;;0.88;;
48042;SDS011;33988;47.992;8.820;2023-05-01T15:46:36;1.30;;;1.10;;
48042;SDS011;33988;47.992;8.820;2023-05-01T15:49:06;0.85;;;0.85;;
48042;SDS011;33988;47.992;8.820;2023-05-01T15:51:37;1.75;;;0.95;;
48042;SDS011;33988;47.992;8.820;2023-05-01T15:54:12;0.80;;;0.80;;
48042;SDS011;33988;47.992;8.820;2023-05-01T15:56:38;1.42;;;0.90;;
48042;SDS011;33988;47.992;8.820;2023-05-01T15:59:08;1.40;;;1.25;;